createdAt,value
2022-11-29T00:01:11.432Z,34.13
2022-11-29T00:03:38.316Z,35.08
2022-11-29T00:06:15.598Z,33.55
2022-11-29T00:08:43.067Z,34.78
2022-11-29T00:11:36.044Z,34.67
2022-11-29T00:14:03.234Z,34.63
2022-11-29T00:16:30.101Z,31.17
2022-11-29T00:18:56.848Z,32.75
2022-11-29T00:21:23.386Z,35.53
2022-11-29T00:23:49.908Z,35.58
2022-11-29T00:26:16.501Z,33.00
2022-11-29T00:28:43.132Z,36.10
2022-11-29T00:31:18.396Z,34.55
2022-11-29T00:33:45.409Z,35.33
2022-11-29T00:36:12.967Z,33.25
2022-11-29T00:38:41.267Z,35.55
2022-11-29T00:41:08.846Z,34.85
2022-11-29T00:43:35.801Z,34.03
2022-11-29T00:46:02.820Z,33.67
2022-11-29T00:48:29.541Z,32.60
2022-11-29T00:50:56.153Z,33.85
2022-11-29T00:53:22.973Z,34.50
2022-11-29T00:55:52.241Z,36.50
2022-11-29T00:58:19.060Z,36.30
2022-11-29T01:00:45.733Z,37.17
2022-11-29T01:03:12.257Z,33.75
2022-11-29T01:05:38.740Z,32.55
2022-11-29T01:08:05.537Z,33.90
2022-11-29T01:10:32.126Z,34.33
2022-11-29T01:12:58.654Z,33.33
2022-11-29T01:15:25.257Z,31.48
2022-11-29T01:17:51.829Z,32.90
2022-11-29T01:20:18.337Z,34.05
2022-11-29T01:22:44.849Z,31.55
2022-11-29T01:25:13.381Z,34.63
2022-11-29T01:27:40.757Z,31.13
2022-11-29T01:30:08.645Z,32.05
2022-11-29T01:32:36.242Z,32.22
2022-11-29T01:35:03.505Z,33.15
2022-11-29T01:37:31.220Z,32.92
2022-11-29T01:39:57.884Z,32.08
2022-11-29T01:42:24.456Z,32.15
2022-11-29T01:45:04.713Z,31.13
2022-11-29T01:47:32.056Z,30.52
2022-11-29T01:50:00.203Z,33.55
2022-11-29T01:52:31.265Z,31.70
2022-11-29T01:55:02.020Z,31.20
2022-11-29T01:57:29.504Z,29.42
2022-11-29T02:00:02.368Z,32.97
2022-11-29T02:02:36.701Z,32.67
2022-11-29T02:05:04.515Z,32.13
2022-11-29T02:07:31.390Z,30.63
2022-11-29T02:09:58.027Z,32.63
2022-11-29T02:12:30.475Z,33.15
2022-11-29T02:15:08.147Z,31.85
2022-11-29T02:17:49.589Z,32.13
2022-11-29T02:20:53.890Z,31.50
2022-11-29T02:23:51.438Z,31.92
2022-11-29T02:26:36.812Z,31.20
2022-11-29T02:29:28.136Z,31.10
2022-11-29T02:32:18.954Z,33.63
2022-11-29T02:35:16.138Z,29.90
2022-11-29T02:37:57.636Z,31.05
2022-11-29T02:41:08.844Z,30.85
2022-11-29T02:43:53.952Z,30.27
2022-11-29T02:49:41.668Z,29.08
2022-11-29T02:52:17.142Z,29.08
2022-11-29T02:55:01.146Z,29.63
2022-11-29T02:57:40.125Z,30.17
2022-11-29T03:00:13.713Z,31.35
2022-11-29T03:02:52.486Z,32.38
2022-11-29T03:05:32.440Z,30.35
2022-11-29T03:08:24.354Z,30.30
2022-11-29T03:11:18.633Z,28.45
2022-11-29T03:13:55.805Z,30.40
2022-11-29T03:16:28.046Z,30.38
2022-11-29T03:19:05.605Z,29.42
2022-11-29T03:21:32.050Z,30.42
2022-11-29T03:24:04.865Z,28.85
2022-11-29T03:26:41.942Z,29.05
2022-11-29T03:29:27.464Z,27.42
2022-11-29T03:31:56.863Z,29.20
2022-11-29T03:34:45.088Z,30.00
2022-11-29T03:37:23.490Z,27.80
2022-11-29T03:40:05.007Z,29.10
2022-11-29T03:42:42.913Z,31.63
2022-11-29T03:45:32.752Z,29.35
2022-11-29T03:48:15.789Z,27.98
2022-11-29T03:50:53.948Z,29.95
2022-11-29T03:53:31.977Z,28.48
2022-11-29T03:56:05.036Z,28.27
2022-11-29T03:58:59.758Z,28.52
2022-11-29T04:01:47.824Z,30.48
2022-11-29T04:04:37.996Z,29.42
2022-11-29T04:07:19.642Z,29.42
2022-11-29T04:10:11.095Z,29.63
2022-11-29T04:12:43.393Z,29.55
2022-11-29T04:15:18.958Z,28.80
2022-11-29T04:17:57.588Z,30.80
2022-11-29T04:20:56.398Z,30.45
2022-11-29T04:23:44.522Z,31.02
2022-11-29T04:26:27.759Z,30.15
2022-11-29T04:29:11.811Z,29.67
2022-11-29T04:31:53.797Z,31.63
2022-11-29T04:35:03.581Z,30.77
2022-11-29T04:38:02.667Z,29.95
2022-11-29T04:40:55.951Z,30.10
2022-11-29T04:44:00.786Z,30.48
2022-11-29T04:46:54.273Z,30.40
2022-11-29T04:49:46.753Z,31.15
2022-11-29T04:52:32.185Z,30.25
2022-11-29T04:55:24.949Z,28.85
2022-11-29T04:58:12.766Z,31.10
2022-11-29T05:00:50.281Z,31.15
2022-11-29T05:03:26.270Z,30.70
2022-11-29T05:06:15.493Z,29.80
2022-11-29T05:09:23.440Z,29.05
2022-11-29T05:12:27.157Z,30.92
2022-11-29T05:15:09.589Z,30.50
2022-11-29T05:18:13.985Z,31.45
2022-11-29T05:20:46.276Z,29.67
2022-11-29T05:23:39.570Z,31.05
2022-11-29T05:26:29.185Z,29.35
2022-11-29T05:29:12.714Z,31.13
2022-11-29T05:32:09.761Z,28.60
2022-11-29T05:34:45.208Z,30.58
2022-11-29T05:37:31.000Z,31.83
2022-11-29T05:40:23.848Z,32.35
2022-11-29T05:42:50.262Z,31.10
2022-11-29T05:45:37.094Z,30.08
2022-11-29T05:48:22.299Z,32.17
2022-11-29T05:51:12.043Z,31.52
2022-11-29T05:53:48.133Z,30.70
2022-11-29T05:56:21.086Z,29.50
2022-11-29T05:59:09.395Z,29.08
2022-11-29T06:01:50.175Z,30.35
2022-11-29T06:04:33.354Z,28.73
2022-11-29T06:07:16.124Z,29.00
2022-11-29T06:10:04.313Z,29.55
2022-11-29T06:12:35.990Z,29.10
2022-11-29T06:15:59.548Z,29.33
2022-11-29T06:19:11.923Z,29.33
2022-11-29T06:21:50.405Z,29.00
2022-11-29T06:24:34.406Z,33.53
2022-11-29T06:27:09.809Z,30.20
2022-11-29T06:30:13.486Z,30.17
2022-11-29T06:33:03.144Z,30.17
2022-11-29T06:35:53.453Z,30.30
2022-11-29T06:38:27.297Z,30.50
2022-11-29T06:41:01.359Z,30.47
2022-11-29T06:46:22.247Z,31.38
2022-11-29T06:48:56.624Z,30.58
2022-11-29T06:51:53.800Z,31.15
2022-11-29T06:54:30.253Z,31.67
2022-11-29T06:57:19.610Z,32.05
2022-11-29T06:59:51.816Z,29.73
2022-11-29T07:02:32.470Z,30.02
2022-11-29T07:05:20.122Z,31.92
2022-11-29T07:07:48.449Z,30.48
2022-11-29T07:10:17.802Z,29.92
2022-11-29T07:12:49.180Z,28.88
2022-11-29T07:15:18.175Z,30.98
2022-11-29T07:17:47.381Z,32.33
2022-11-29T07:20:51.720Z,32.45
2022-11-29T07:23:35.853Z,31.30
2022-11-29T07:26:27.329Z,31.02
2022-11-29T07:29:35.377Z,31.55
2022-11-29T07:32:35.158Z,33.75
2022-11-29T07:35:09.005Z,32.30
2022-11-29T07:38:01.880Z,29.83
2022-11-29T07:40:56.320Z,31.27
2022-11-29T07:43:38.360Z,33.00
2022-11-29T07:46:04.934Z,32.72
2022-11-29T07:48:31.510Z,31.13
2022-11-29T07:50:58.049Z,32.45
2022-11-29T07:53:24.772Z,31.55
2022-11-29T07:55:51.568Z,35.42
2022-11-29T07:58:18.732Z,32.88
2022-11-29T08:00:45.760Z,33.63
2022-11-29T08:03:12.854Z,31.05
2022-11-29T08:05:40.240Z,34.45
2022-11-29T08:08:07.368Z,33.22
2022-11-29T08:10:35.553Z,30.90
2022-11-29T08:13:02.118Z,31.40
2022-11-29T08:15:28.752Z,30.67
2022-11-29T08:17:55.250Z,31.80
2022-11-29T08:20:21.820Z,33.22
2022-11-29T08:22:58.651Z,32.65
2022-11-29T08:25:27.194Z,32.78
2022-11-29T08:27:54.745Z,32.47
2022-11-29T08:30:22.454Z,33.33
2022-11-29T08:32:51.765Z,31.70
2022-11-29T08:35:20.592Z,31.30
2022-11-29T08:37:47.193Z,33.53
2022-11-29T08:40:14.289Z,31.67
2022-11-29T08:42:40.814Z,30.15
2022-11-29T08:45:07.982Z,30.95
2022-11-29T08:47:37.179Z,32.13
2022-11-29T08:50:14.614Z,32.83
2022-11-29T08:53:05.167Z,31.35
2022-11-29T08:55:34.750Z,31.95
2022-11-29T08:58:04.838Z,32.83
2022-11-29T09:00:32.517Z,33.97
2022-11-29T09:03:19.113Z,33.55
2022-11-29T09:05:45.830Z,33.38
2022-11-29T09:08:12.390Z,34.50
2022-11-29T09:10:40.516Z,34.03
2022-11-29T09:13:08.561Z,31.60
2022-11-29T09:15:37.037Z,32.33
2022-11-29T09:18:05.423Z,33.08
2022-11-29T09:20:33.157Z,32.65
2022-11-29T09:23:00.849Z,32.55
2022-11-29T09:25:27.972Z,33.50
2022-11-29T09:27:57.308Z,33.67
2022-11-29T09:30:24.056Z,34.33
2022-11-29T09:32:50.687Z,34.63
2022-11-29T09:35:17.541Z,33.97
2022-11-29T09:37:44.135Z,34.72
2022-11-29T09:40:25.477Z,35.45
2022-11-29T09:43:09.045Z,33.83
2022-11-29T09:45:42.741Z,33.05
2022-11-29T09:48:31.033Z,34.38
2022-11-29T09:51:27.440Z,35.03
2022-11-29T09:54:32.686Z,32.35
2022-11-29T09:56:59.625Z,33.65
2022-11-29T09:59:35.929Z,32.83
2022-11-29T10:02:32.760Z,35.08
2022-11-29T10:05:09.033Z,32.67
2022-11-29T10:07:43.536Z,32.83
2022-11-29T10:10:15.998Z,30.27
2022-11-29T10:12:54.557Z,33.47
2022-11-29T10:15:28.037Z,35.05
2022-11-29T10:18:16.535Z,32.67
2022-11-29T10:20:49.161Z,34.60
2022-11-29T10:23:46.450Z,35.78
2022-11-29T10:26:13.677Z,37.85
2022-11-29T10:28:44.973Z,34.63
2022-11-29T10:31:27.943Z,34.58
2022-11-29T10:33:56.101Z,33.60
2022-11-29T10:36:36.538Z,31.38
2022-11-29T10:39:14.404Z,34.50
2022-11-29T10:41:41.373Z,36.08
2022-11-29T10:44:13.493Z,37.58
2022-11-29T10:46:40.339Z,36.80
2022-11-29T10:49:13.509Z,35.22
2022-11-29T10:51:40.403Z,34.47
2022-11-29T10:54:31.279Z,31.75
2022-11-29T10:57:00.353Z,33.33
2022-11-29T10:59:29.629Z,34.67
2022-11-29T11:01:57.557Z,32.78
2022-11-29T11:04:42.884Z,36.13
2022-11-29T11:07:23.965Z,35.92
2022-11-29T11:09:53.708Z,36.20
2022-11-29T11:12:24.052Z,35.80
2022-11-29T11:14:51.553Z,35.65
2022-11-29T11:17:22.742Z,37.38
2022-11-29T11:19:55.427Z,35.88
2022-11-29T11:22:24.422Z,36.78
2022-11-29T11:25:03.685Z,35.47
2022-11-29T11:27:37.196Z,36.80
2022-11-29T11:30:06.634Z,36.13
2022-11-29T11:32:33.404Z,34.83
2022-11-29T11:35:01.860Z,35.42
2022-11-29T11:37:33.319Z,34.22
2022-11-29T11:40:19.306Z,36.22
2022-11-29T11:42:46.474Z,38.65
2022-11-29T11:45:12.936Z,35.90
2022-11-29T11:47:44.960Z,36.53
2022-11-29T11:50:16.684Z,39.25
2022-11-29T11:52:52.361Z,40.30
2022-11-29T11:55:21.880Z,41.95
2022-11-29T11:57:57.591Z,40.88
2022-11-29T12:01:03.911Z,45.90
2022-11-29T12:03:45.803Z,41.90
2022-11-29T12:06:33.997Z,46.33
2022-11-29T12:09:16.433Z,45.50
2022-11-29T12:12:06.904Z,48.35
2022-11-29T12:14:50.212Z,53.70
2022-11-29T12:17:27.635Z,54.40
2022-11-29T12:20:10.024Z,52.50
2022-11-29T12:22:48.560Z,54.22
2022-11-29T12:25:21.179Z,57.92
2022-11-29T12:27:50.254Z,58.35
2022-11-29T12:30:18.404Z,52.67
2022-11-29T12:33:06.323Z,55.38
2022-11-29T12:35:41.897Z,58.50
2022-11-29T12:38:14.415Z,58.67
2022-11-29T12:40:53.010Z,58.28
2022-11-29T12:43:25.318Z,56.72
2022-11-29T12:46:24.537Z,56.85
2022-11-29T12:49:15.733Z,58.42
2022-11-29T12:51:51.443Z,58.63
2022-11-29T12:54:44.659Z,58.03
2022-11-29T12:57:25.238Z,58.35
2022-11-29T13:00:15.394Z,57.72
2022-11-29T13:02:58.762Z,55.55
2022-11-29T13:05:41.453Z,57.42
2022-11-29T13:08:23.080Z,58.03
2022-11-29T13:11:12.083Z,59.25
2022-11-29T13:13:43.388Z,58.03
2022-11-29T13:19:47.257Z,57.97
2022-11-29T13:22:41.759Z,58.00
2022-11-29T13:25:26.936Z,58.97
2022-11-29T13:28:05.244Z,59.60
2022-11-29T13:30:34.342Z,59.45
2022-11-29T13:33:16.108Z,58.20
2022-11-29T13:35:53.283Z,59.45
2022-11-29T13:38:28.869Z,57.15
2022-11-29T13:41:32.245Z,58.25
2022-11-29T13:44:15.881Z,57.78
2022-11-29T13:47:08.925Z,59.03
2022-11-29T13:50:01.979Z,55.85
2022-11-29T13:52:48.385Z,56.60
2022-11-29T13:55:28.744Z,59.38
2022-11-29T13:58:30.581Z,57.90
2022-11-29T14:01:06.093Z,60.80
2022-11-29T14:03:36.301Z,59.55
2022-11-29T14:06:03.223Z,60.00
2022-11-29T14:09:16.712Z,58.33
2022-11-29T14:11:28.836Z,59.30
2022-11-29T14:14:08.998Z,58.05
2022-11-29T14:16:47.765Z,58.33
2022-11-29T14:19:33.771Z,56.55
2022-11-29T14:22:06.485Z,57.05
2022-11-29T14:24:33.453Z,58.28
2022-11-29T14:27:20.131Z,58.58
2022-11-29T14:29:50.016Z,57.55
2022-11-29T14:32:32.598Z,58.60
2022-11-29T14:35:11.292Z,60.00
2022-11-29T14:38:02.316Z,58.67
2022-11-29T14:40:56.330Z,58.55
2022-11-29T14:43:34.446Z,59.05
2022-11-29T14:46:09.967Z,57.35
2022-11-29T14:48:37.324Z,56.70
2022-11-29T14:51:13.433Z,57.47
2022-11-29T14:53:41.897Z,56.83
2022-11-29T14:56:39.058Z,56.45
2022-11-29T14:59:44.961Z,56.25
2022-11-29T15:02:25.872Z,56.17
2022-11-29T15:04:56.469Z,55.90
2022-11-29T15:07:31.927Z,56.35
2022-11-29T15:10:03.295Z,53.95
2022-11-29T15:12:37.981Z,53.30
2022-11-29T15:17:55.662Z,52.85
2022-11-29T15:20:32.004Z,52.40
2022-11-29T15:23:01.729Z,52.55
2022-11-29T15:25:31.846Z,51.83
2022-11-29T15:28:03.654Z,52.83
2022-11-29T15:30:39.153Z,54.33
2022-11-29T15:33:08.778Z,53.40
2022-11-29T15:35:36.590Z,52.17
2022-11-29T15:38:03.857Z,52.95
2022-11-29T15:40:35.277Z,52.35
2022-11-29T15:43:22.539Z,56.45
2022-11-29T15:45:51.830Z,54.90
2022-11-29T15:48:23.022Z,53.00
2022-11-29T15:51:01.809Z,50.92
2022-11-29T15:53:47.156Z,50.20
2022-11-29T15:56:20.014Z,56.00
2022-11-29T15:58:47.852Z,51.88
2022-11-29T16:01:20.745Z,49.67
2022-11-29T16:03:51.188Z,51.97
2022-11-29T16:06:40.677Z,50.33
2022-11-29T16:09:12.633Z,48.72
2022-11-29T16:11:39.806Z,48.28
2022-11-29T16:14:18.135Z,51.50
2022-11-29T16:16:47.331Z,48.90
2022-11-29T16:19:26.114Z,51.53
2022-11-29T16:22:10.910Z,50.03
2022-11-29T16:24:39.775Z,52.55
2022-11-29T16:27:08.072Z,48.45
2022-11-29T16:29:45.271Z,49.97
2022-11-29T16:32:37.869Z,50.88
2022-11-29T16:35:13.132Z,49.03
2022-11-29T16:37:42.803Z,47.90
2022-11-29T16:40:35.422Z,49.88
2022-11-29T16:43:04.885Z,50.40
2022-11-29T16:45:37.258Z,47.75
2022-11-29T16:48:24.586Z,49.88
2022-11-29T16:51:12.050Z,48.13
2022-11-29T16:53:43.207Z,47.47
2022-11-29T16:56:14.994Z,47.85
2022-11-29T16:59:20.542Z,47.50
2022-11-29T17:01:32.552Z,48.50
2022-11-29T17:04:00.467Z,49.17
2022-11-29T17:06:29.527Z,48.90
2022-11-29T17:08:58.174Z,47.65
2022-11-29T17:11:27.029Z,48.17
2022-11-29T17:13:53.842Z,47.45
2022-11-29T17:16:22.992Z,47.60
2022-11-29T17:18:50.168Z,47.08
2022-11-29T17:21:21.786Z,46.53
2022-11-29T17:23:48.882Z,47.25
2022-11-29T17:26:16.499Z,46.65
2022-11-29T17:28:44.822Z,47.60
2022-11-29T17:31:13.674Z,47.00
2022-11-29T17:33:40.341Z,44.55
2022-11-29T17:36:08.511Z,47.65
2022-11-29T17:38:35.365Z,44.15
2022-11-29T17:41:09.768Z,47.13
2022-11-29T17:43:36.901Z,45.58
2022-11-29T17:46:08.024Z,45.90
2022-11-29T17:48:34.795Z,44.13
2022-11-29T17:51:02.105Z,45.83
2022-11-29T17:53:28.688Z,43.97
2022-11-29T17:55:55.165Z,41.50
2022-11-29T17:58:21.668Z,41.65
2022-11-29T18:00:48.202Z,42.35
2022-11-29T18:03:14.726Z,45.75
2022-11-29T18:05:41.191Z,44.90
2022-11-29T18:08:07.737Z,45.13
2022-11-29T18:10:35.865Z,44.35
2022-11-29T18:13:02.418Z,41.03
2022-11-29T18:15:28.937Z,42.45
2022-11-29T18:17:55.508Z,43.33
2022-11-29T18:20:22.046Z,42.90
2022-11-29T18:22:48.586Z,42.05
2022-11-29T18:25:37.441Z,44.60
2022-11-29T18:28:02.313Z,41.85
2022-11-29T18:30:28.847Z,41.55
2022-11-29T18:32:56.889Z,43.67
2022-11-29T18:35:23.408Z,44.88
2022-11-29T18:38:14.189Z,44.90
2022-11-29T18:40:45.479Z,44.85
2022-11-29T18:43:15.313Z,45.20
2022-11-29T18:45:41.843Z,42.60
2022-11-29T18:48:08.460Z,42.85
2022-11-29T18:50:34.920Z,44.75
2022-11-29T18:53:01.517Z,44.08
2022-11-29T18:55:28.151Z,42.50
2022-11-29T18:57:55.060Z,44.85
2022-11-29T19:00:21.789Z,41.25
2022-11-29T19:02:48.389Z,44.42
2022-11-29T19:05:15.025Z,47.53
2022-11-29T19:07:41.659Z,44.50
2022-11-29T19:10:08.593Z,40.00
2022-11-29T19:12:35.190Z,44.92
2022-11-29T19:15:01.921Z,43.53
2022-11-29T19:17:29.529Z,41.47
2022-11-29T19:19:56.083Z,42.30
2022-11-29T19:22:22.594Z,42.28
2022-11-29T19:24:49.165Z,42.38
2022-11-29T19:27:16.424Z,44.10
2022-11-29T19:29:43.029Z,43.92
2022-11-29T19:32:09.605Z,41.00
2022-11-29T19:34:36.098Z,42.00
2022-11-29T19:37:02.582Z,40.42
2022-11-29T19:39:29.342Z,41.88
2022-11-29T19:41:56.055Z,40.67
2022-11-29T19:44:27.944Z,43.25
2022-11-29T19:46:56.443Z,43.57
2022-11-29T19:49:22.952Z,39.97
2022-11-29T19:51:49.452Z,43.67
2022-11-29T19:54:16.017Z,41.53
2022-11-29T19:56:42.558Z,41.63
2022-11-29T19:59:09.265Z,44.50
2022-11-29T20:01:43.828Z,42.40
2022-11-29T20:06:38.109Z,42.75
2022-11-29T20:09:05.101Z,42.45
2022-11-29T20:11:31.629Z,42.83
2022-11-29T20:14:00.705Z,42.08
2022-11-29T20:16:29.294Z,42.47
2022-11-29T20:18:56.916Z,40.63
2022-11-29T20:21:29.933Z,40.15
2022-11-29T20:23:58.554Z,38.92
2022-11-29T20:26:26.466Z,40.22
2022-11-29T20:28:53.067Z,40.72
2022-11-29T20:31:22.774Z,41.65
2022-11-29T20:33:51.431Z,43.00
2022-11-29T20:36:46.570Z,41.08
2022-11-29T20:39:40.203Z,39.95
2022-11-29T20:42:09.377Z,40.63
2022-11-29T20:44:45.818Z,40.53
2022-11-29T20:47:22.985Z,40.95
2022-11-29T20:49:50.228Z,40.47
2022-11-29T20:52:52.074Z,38.85
2022-11-29T20:55:18.929Z,38.78
2022-11-29T20:57:45.510Z,39.72
2022-11-29T21:00:12.845Z,39.83
2022-11-29T21:02:39.628Z,37.42
2022-11-29T21:05:06.802Z,35.83
2022-11-29T21:07:33.613Z,33.47
2022-11-29T21:10:01.537Z,33.83
2022-11-29T21:12:30.024Z,34.25
2022-11-29T21:14:57.380Z,36.60
2022-11-29T21:17:28.810Z,36.80
2022-11-29T21:20:00.134Z,36.58
2022-11-29T21:22:38.264Z,36.50
2022-11-29T21:25:16.216Z,37.22
2022-11-29T21:27:42.943Z,36.60
2022-11-29T21:30:17.983Z,37.08
2022-11-29T21:32:50.890Z,36.75
2022-11-29T21:35:17.759Z,35.90
2022-11-29T21:37:45.300Z,36.10
2022-11-29T21:40:13.269Z,36.45
2022-11-29T21:42:39.878Z,36.90
2022-11-29T21:45:11.766Z,36.55
2022-11-29T21:47:41.612Z,34.03
2022-11-29T21:50:08.877Z,35.88
2022-11-29T21:52:35.470Z,38.55
2022-11-29T21:55:02.275Z,36.28
2022-11-29T21:57:28.774Z,39.15
2022-11-29T21:59:55.326Z,37.15
2022-11-29T22:02:22.084Z,36.78
2022-11-29T22:04:49.059Z,37.80
2022-11-29T22:07:15.771Z,36.72
2022-11-29T22:09:42.358Z,38.60
2022-11-29T22:12:31.866Z,37.97
2022-11-29T22:14:55.412Z,36.88
2022-11-29T22:17:21.956Z,38.92
2022-11-29T22:19:48.439Z,38.25
2022-11-29T22:22:14.966Z,37.45
2022-11-29T22:24:41.517Z,39.85
2022-11-29T22:27:08.014Z,39.30
2022-11-29T22:29:34.555Z,42.33
2022-11-29T22:32:02.264Z,41.70
2022-11-29T22:34:28.812Z,41.05
2022-11-29T22:36:55.940Z,42.35
2022-11-29T22:39:22.930Z,39.10
2022-11-29T22:41:54.186Z,41.83
2022-11-29T22:44:21.940Z,41.72
2022-11-29T22:46:48.775Z,40.95
2022-11-29T22:49:15.360Z,44.15
2022-11-29T22:51:41.956Z,41.97
2022-11-29T22:54:11.359Z,40.83
2022-11-29T22:56:40.101Z,42.08
2022-11-29T22:59:06.832Z,44.65
2022-11-29T23:01:36.038Z,43.53
2022-11-29T23:04:06.065Z,44.40
2022-11-29T23:06:38.667Z,43.13
2022-11-29T23:09:12.097Z,43.50
2022-11-29T23:11:39.057Z,41.70
2022-11-29T23:14:05.572Z,46.10
2022-11-29T23:16:32.890Z,42.58
2022-11-29T23:19:00.219Z,42.78
2022-11-29T23:21:34.159Z,45.53
2022-11-29T23:24:01.553Z,46.35
2022-11-29T23:26:33.920Z,47.10
2022-11-29T23:29:00.439Z,47.22
2022-11-29T23:31:27.122Z,45.65
2022-11-29T23:33:53.901Z,45.08
2022-11-29T23:36:20.545Z,45.63
2022-11-29T23:38:47.870Z,47.80
2022-11-29T23:41:14.858Z,45.35
2022-11-29T23:43:41.869Z,48.90
2022-11-29T23:46:12.267Z,45.83
2022-11-29T23:48:38.961Z,46.50
2022-11-29T23:51:05.840Z,48.35
2022-11-29T23:53:32.546Z,48.15
2022-11-29T23:56:01.263Z,47.00
2022-11-29T23:58:29.621Z,49.25
